Terminal Aerodrome Forecast
Issued by NWS

Home | Current Version | Previous Version | Graphics & Text | Print | Product List | Glossary On
Versions: 1 2 3 4 5 6 7 8 9 10 11 12 13 14
000
FTUS43 KICT 231124
TAFSLN
TAF
KSLN 231124Z 2312/2412 33012KT P6SM SCT080
     FM231500 33016G23KT P6SM FEW030 BKN090
     FM231800 32018G26KT P6SM VCSH SCT040 BKN100
      TEMPO 2319/2323 BKN040
     FM240100 33010KT P6SM BKN070=

USA.gov is the U.S. government's official web portal to all federal, state and local government web resources and services.